sensor_id;sensor_type;location;lat;lon;timestamp;pressure;altitude;pressure_sealevel;temperature;humidity
39613;BME280;25303;48.896;13.342;2022-09-13T00:02:13;92743.94;;;13.08;72.18
39613;BME280;25303;48.896;13.342;2022-09-13T00:04:56;92736.69;;;13.03;72.41
39613;BME280;25303;48.896;13.342;2022-09-13T00:07:39;92742.16;;;13.09;72.14
39613;BME280;25303;48.896;13.342;2022-09-13T00:10:23;92739.75;;;13.07;72.44
39613;BME280;25303;48.896;13.342;2022-09-13T00:13:07;92739.28;;;13.03;72.50
39613;BME280;25303;48.896;13.342;2022-09-13T00:15:52;92728.56;;;12.91;72.79
39613;BME280;25303;48.896;13.342;2022-09-13T00:18:35;92726.97;;;12.90;72.78
39613;BME280;25303;48.896;13.342;2022-09-13T00:21:20;92718.47;;;12.82;73.26
39613;BME280;25303;48.896;13.342;2022-09-13T00:24:04;92723.81;;;12.80;73.18
39613;BME280;25303;48.896;13.342;2022-09-13T00:26:47;92706.28;;;12.67;73.63
39613;BME280;25303;48.896;13.342;2022-09-13T00:29:30;92712.31;;;12.59;73.98
39613;BME280;25303;48.896;13.342;2022-09-13T00:32:15;92700.22;;;12.60;74.14
39613;BME280;25303;48.896;13.342;2022-09-13T00:34:58;92697.34;;;12.55;74.29
39613;BME280;25303;48.896;13.342;2022-09-13T00:37:41;92698.22;;;12.47;74.87
39613;BME280;25303;48.896;13.342;2022-09-13T00:40:23;92697.06;;;12.50;74.60
39613;BME280;25303;48.896;13.342;2022-09-13T00:43:11;92697.53;;;12.53;74.56
39613;BME280;25303;48.896;13.342;2022-09-13T00:45:58;92695.59;;;12.55;74.59
39613;BME280;25303;48.896;13.342;2022-09-13T00:48:43;92696.34;;;12.64;74.16
39613;BME280;25303;48.896;13.342;2022-09-13T00:51:28;92691.63;;;12.68;73.96
39613;BME280;25303;48.896;13.342;2022-09-13T00:54:12;92684.91;;;12.58;74.37
39613;BME280;25303;48.896;13.342;2022-09-13T00:56:59;92682.19;;;12.52;74.61
39613;BME280;25303;48.896;13.342;2022-09-13T00:59:46;92676.66;;;12.40;75.13
39613;BME280;25303;48.896;13.342;2022-09-13T01:02:32;92681.81;;;12.40;75.18
39613;BME280;25303;48.896;13.342;2022-09-13T01:05:19;92679.72;;;12.35;75.23
39613;BME280;25303;48.896;13.342;2022-09-13T01:08:05;92680.38;;;12.37;74.89
39613;BME280;25303;48.896;13.342;2022-09-13T01:10:55;92685.00;;;12.42;74.78
39613;BME280;25303;48.896;13.342;2022-09-13T01:13:41;92685.31;;;12.47;74.38
39613;BME280;25303;48.896;13.342;2022-09-13T01:16:25;92672.72;;;12.44;74.70
39613;BME280;25303;48.896;13.342;2022-09-13T01:19:08;92670.34;;;12.42;75.01
39613;BME280;25303;48.896;13.342;2022-09-13T01:22:12;92673.56;;;12.44;75.19
39613;BME280;25303;48.896;13.342;2022-09-13T01:25:25;92661.31;;;12.38;75.47
39613;BME280;25303;48.896;13.342;2022-09-13T01:28:25;92660.81;;;12.43;74.90
39613;BME280;25303;48.896;13.342;2022-09-13T01:31:19;92663.38;;;12.43;74.75
39613;BME280;25303;48.896;13.342;2022-09-13T01:34:16;92662.59;;;12.42;74.90
39613;BME280;25303;48.896;13.342;2022-09-13T01:37:13;92664.00;;;12.45;74.77
39613;BME280;25303;48.896;13.342;2022-09-13T01:40:08;92664.50;;;12.49;74.73
39613;BME280;25303;48.896;13.342;2022-09-13T01:43:11;92664.31;;;12.50;74.47
39613;BME280;25303;48.896;13.342;2022-09-13T01:46:03;92667.69;;;12.51;74.38
39613;BME280;25303;48.896;13.342;2022-09-13T01:48:54;92664.50;;;12.49;74.47
39613;BME280;25303;48.896;13.342;2022-09-13T01:51:43;92660.47;;;12.46;74.53
39613;BME280;25303;48.896;13.342;2022-09-13T01:54:31;92648.53;;;12.45;74.50
39613;BME280;25303;48.896;13.342;2022-09-13T01:57:19;92639.69;;;12.39;75.02
39613;BME280;25303;48.896;13.342;2022-09-13T02:00:10;92637.19;;;12.31;75.45
39613;BME280;25303;48.896;13.342;2022-09-13T02:03:00;92633.63;;;12.32;75.46
39613;BME280;25303;48.896;13.342;2022-09-13T02:05:50;92625.72;;;12.34;75.37
39613;BME280;25303;48.896;13.342;2022-09-13T02:08:38;92623.41;;;12.39;75.08
39613;BME280;25303;48.896;13.342;2022-09-13T02:11:22;92631.44;;;12.44;75.14
39613;BME280;25303;48.896;13.342;2022-09-13T02:14:09;92631.28;;;12.45;75.14
39613;BME280;25303;48.896;13.342;2022-09-13T02:16:57;92629.94;;;12.50;75.10
39613;BME280;25303;48.896;13.342;2022-09-13T02:19:48;92622.19;;;12.50;75.14
39613;BME280;25303;48.896;13.342;2022-09-13T02:22:40;92624.94;;;12.48;75.18
39613;BME280;25303;48.896;13.342;2022-09-13T02:25:25;92627.53;;;12.48;75.17
39613;BME280;25303;48.896;13.342;2022-09-13T02:28:12;92629.13;;;12.49;75.15
39613;BME280;25303;48.896;13.342;2022-09-13T02:30:58;92610.44;;;12.47;75.31
39613;BME280;25303;48.896;13.342;2022-09-13T02:33:46;92616.41;;;12.48;75.27
39613;BME280;25303;48.896;13.342;2022-09-13T02:36:35;92622.19;;;12.50;75.16
39613;BME280;25303;48.896;13.342;2022-09-13T02:39:24;92621.28;;;12.42;75.60
39613;BME280;25303;48.896;13.342;2022-09-13T02:42:13;92621.19;;;12.36;75.87
39613;BME280;25303;48.896;13.342;2022-09-13T02:44:58;92630.00;;;12.41;75.46
39613;BME280;25303;48.896;13.342;2022-09-13T02:47:46;92634.19;;;12.42;75.37
39613;BME280;25303;48.896;13.342;2022-09-13T02:50:43;92633.38;;;12.42;75.51
39613;BME280;25303;48.896;13.342;2022-09-13T02:53:34;92637.75;;;12.41;75.49
39613;BME280;25303;48.896;13.342;2022-09-13T02:56:28;92633.56;;;12.40;75.33
39613;BME280;25303;48.896;13.342;2022-09-13T02:59:16;92631.78;;;12.41;75.49
39613;BME280;25303;48.896;13.342;2022-09-13T03:02:05;92624.53;;;12.36;75.72
39613;BME280;25303;48.896;13.342;2022-09-13T03:04:49;92637.13;;;12.39;75.44
39613;BME280;25303;48.896;13.342;2022-09-13T03:07:32;92642.47;;;12.38;75.18
39613;BME280;25303;48.896;13.342;2022-09-13T03:10:16;92638.44;;;12.35;75.45
39613;BME280;25303;48.896;13.342;2022-09-13T03:13:14;92638.44;;;12.35;75.70
39613;BME280;25303;48.896;13.342;2022-09-13T03:16:08;92638.63;;;12.34;75.31
39613;BME280;25303;48.896;13.342;2022-09-13T03:19:10;92643.13;;;12.31;75.52
39613;BME280;25303;48.896;13.342;2022-09-13T03:22:09;92649.63;;;12.27;75.63
39613;BME280;25303;48.896;13.342;2022-09-13T03:25:05;92646.06;;;12.28;75.60
39613;BME280;25303;48.896;13.342;2022-09-13T03:27:55;92638.31;;;12.28;75.63
39613;BME280;25303;48.896;13.342;2022-09-13T03:30:46;92632.38;;;12.28;75.81
39613;BME280;25303;48.896;13.342;2022-09-13T03:33:38;92637.69;;;12.26;75.60
39613;BME280;25303;48.896;13.342;2022-09-13T03:36:26;92642.25;;;12.24;75.83
39613;BME280;25303;48.896;13.342;2022-09-13T03:39:19;92630.31;;;12.23;76.12
39613;BME280;25303;48.896;13.342;2022-09-13T03:42:12;92634.00;;;12.21;76.30
39613;BME280;25303;48.896;13.342;2022-09-13T03:44:59;92638.38;;;12.20;76.16
39613;BME280;25303;48.896;13.342;2022-09-13T03:47:46;92650.66;;;12.18;75.95
39613;BME280;25303;48.896;13.342;2022-09-13T03:50:30;92651.63;;;12.17;76.04
39613;BME280;25303;48.896;13.342;2022-09-13T03:53:17;92644.84;;;12.16;76.20
39613;BME280;25303;48.896;13.342;2022-09-13T03:56:11;92645.03;;;12.14;76.17
39613;BME280;25303;48.896;13.342;2022-09-13T03:58:54;92659.69;;;12.14;76.10
39613;BME280;25303;48.896;13.342;2022-09-13T04:01:37;92644.75;;;12.09;76.20
39613;BME280;25303;48.896;13.342;2022-09-13T04:04:21;92650.09;;;12.08;76.54
39613;BME280;25303;48.896;13.342;2022-09-13T04:07:05;92629.78;;;11.96;76.84
39613;BME280;25303;48.896;13.342;2022-09-13T04:09:48;92632.53;;;11.95;76.84
39613;BME280;25303;48.896;13.342;2022-09-13T04:12:31;92626.41;;;11.96;76.86
39613;BME280;25303;48.896;13.342;2022-09-13T04:15:14;92621.59;;;11.93;77.12
39613;BME280;25303;48.896;13.342;2022-09-13T04:17:57;92620.63;;;11.94;77.33
39613;BME280;25303;48.896;13.342;2022-09-13T04:20:42;92622.72;;;11.98;77.02
39613;BME280;25303;48.896;13.342;2022-09-13T04:23:27;92612.22;;;12.00;77.03
39613;BME280;25303;48.896;13.342;2022-09-13T04:26:10;92607.03;;;12.00;77.01
39613;BME280;25303;48.896;13.342;2022-09-13T04:28:53;92616.41;;;12.01;76.98
39613;BME280;25303;48.896;13.342;2022-09-13T04:31:36;92618.38;;;11.99;76.82
39613;BME280;25303;48.896;13.342;2022-09-13T04:34:20;92630.59;;;11.97;77.04
39613;BME280;25303;48.896;13.342;2022-09-13T04:37:05;92637.22;;;11.99;77.29
39613;BME280;25303;48.896;13.342;2022-09-13T04:39:48;92625.75;;;12.02;77.23
39613;BME280;25303;48.896;13.342;2022-09-13T04:42:31;92618.47;;;12.06;77.13
39613;BME280;25303;48.896;13.342;2022-09-13T04:45:14;92618.63;;;12.04;77.28
39613;BME280;25303;48.896;13.342;2022-09-13T04:47:57;92616.88;;;12.05;77.14
39613;BME280;25303;48.896;13.342;2022-09-13T04:50:41;92609.88;;;11.82;78.29
39613;BME280;25303;48.896;13.342;2022-09-13T04:53:25;92607.75;;;11.85;78.12
39613;BME280;25303;48.896;13.342;2022-09-13T04:56:08;92613.03;;;11.92;77.62
39613;BME280;25303;48.896;13.342;2022-09-13T04:58:52;92612.88;;;11.94;77.81
39613;BME280;25303;48.896;13.342;2022-09-13T05:01:36;92616.72;;;11.98;77.92
39613;BME280;25303;48.896;13.342;2022-09-13T05:04:19;92613.56;;;11.88;77.98
39613;BME280;25303;48.896;13.342;2022-09-13T05:07:02;92618.56;;;11.89;78.29
39613;BME280;25303;48.896;13.342;2022-09-13T05:09:47;92618.03;;;11.94;78.25
39613;BME280;25303;48.896;13.342;2022-09-13T05:12:30;92624.94;;;12.02;77.63
39613;BME280;25303;48.896;13.342;2022-09-13T05:15:13;92633.00;;;12.07;77.55
39613;BME280;25303;48.896;13.342;2022-09-13T05:17:56;92631.66;;;12.11;77.31
39613;BME280;25303;48.896;13.342;2022-09-13T05:20:39;92631.50;;;12.12;77.20
39613;BME280;25303;48.896;13.342;2022-09-13T05:23:22;92630.41;;;12.07;77.73
39613;BME280;25303;48.896;13.342;2022-09-13T05:26:07;92633.13;;;12.13;77.60
39613;BME280;25303;48.896;13.342;2022-09-13T05:28:50;92628.75;;;12.14;77.86
39613;BME280;25303;48.896;13.342;2022-09-13T05:31:36;92628.84;;;12.21;77.64
39613;BME280;25303;48.896;13.342;2022-09-13T05:34:19;92619.81;;;12.25;77.77
39613;BME280;25303;48.896;13.342;2022-09-13T05:37:02;92617.66;;;12.28;77.73
39613;BME280;25303;48.896;13.342;2022-09-13T05:39:45;92625.53;;;12.35;77.48
39613;BME280;25303;48.896;13.342;2022-09-13T05:42:51;92628.84;;;12.44;77.39
39613;BME280;25303;48.896;13.342;2022-09-13T05:45:34;92630.56;;;12.52;77.24
39613;BME280;25303;48.896;13.342;2022-09-13T05:48:17;92628.09;;;12.58;76.99
39613;BME280;25303;48.896;13.342;2022-09-13T05:51:04;92632.22;;;12.68;77.15
39613;BME280;25303;48.896;13.342;2022-09-13T05:53:49;92637.28;;;12.76;77.06
39613;BME280;25303;48.896;13.342;2022-09-13T05:56:32;92627.69;;;12.85;77.11
39613;BME280;25303;48.896;13.342;2022-09-13T05:59:16;92639.72;;;12.92;76.99
39613;BME280;25303;48.896;13.342;2022-09-13T06:01:59;92643.22;;;13.00;76.90
39613;BME280;25303;48.896;13.342;2022-09-13T06:04:42;92646.09;;;13.05;76.79
39613;BME280;25303;48.896;13.342;2022-09-13T06:07:26;92647.50;;;13.07;76.78
39613;BME280;25303;48.896;13.342;2022-09-13T06:10:10;92650.38;;;13.13;76.68
39613;BME280;25303;48.896;13.342;2022-09-13T06:12:53;92653.22;;;13.18;76.66
39613;BME280;25303;48.896;13.342;2022-09-13T06:15:37;92658.66;;;13.23;76.27
39613;BME280;25303;48.896;13.342;2022-09-13T06:18:27;92652.97;;;13.28;76.11
39613;BME280;25303;48.896;13.342;2022-09-13T06:21:12;92650.66;;;13.33;76.20
39613;BME280;25303;48.896;13.342;2022-09-13T06:23:58;92655.75;;;13.41;76.50
39613;BME280;25303;48.896;13.342;2022-09-13T06:26:41;92649.69;;;13.49;76.58
39613;BME280;25303;48.896;13.342;2022-09-13T06:29:24;92652.97;;;13.58;76.26
39613;BME280;25303;48.896;13.342;2022-09-13T06:32:08;92656.47;;;13.65;76.18
39613;BME280;25303;48.896;13.342;2022-09-13T06:34:51;92648.16;;;13.70;75.88
39613;BME280;25303;48.896;13.342;2022-09-13T06:37:34;92644.44;;;13.72;75.48
39613;BME280;25303;48.896;13.342;2022-09-13T06:40:18;92641.44;;;13.75;75.28
39613;BME280;25303;48.896;13.342;2022-09-13T06:43:06;92639.31;;;13.79;75.35
39613;BME280;25303;48.896;13.342;2022-09-13T06:45:48;92630.81;;;13.85;75.55
39613;BME280;25303;48.896;13.342;2022-09-13T06:48:35;92632.97;;;13.96;75.51
39613;BME280;25303;48.896;13.342;2022-09-13T06:51:20;92628.47;;;14.05;74.86
39613;BME280;25303;48.896;13.342;2022-09-13T06:54:03;92635.75;;;14.17;74.17
39613;BME280;25303;48.896;13.342;2022-09-13T06:56:46;92640.78;;;14.25;74.26
39613;BME280;25303;48.896;13.342;2022-09-13T06:59:29;92631.75;;;14.36;74.11
39613;BME280;25303;48.896;13.342;2022-09-13T07:02:12;92633.59;;;14.42;74.10
39613;BME280;25303;48.896;13.342;2022-09-13T07:04:57;92643.41;;;14.47;74.03
39613;BME280;25303;48.896;13.342;2022-09-13T07:07:40;92648.84;;;14.52;73.58
39613;BME280;25303;48.896;13.342;2022-09-13T07:10:23;92650.88;;;14.56;73.03
39613;BME280;25303;48.896;13.342;2022-09-13T07:13:07;92655.31;;;14.63;72.95
39613;BME280;25303;48.896;13.342;2022-09-13T07:15:50;92652.97;;;14.68;72.58
39613;BME280;25303;48.896;13.342;2022-09-13T07:18:34;92655.63;;;14.74;72.87
39613;BME280;25303;48.896;13.342;2022-09-13T07:21:19;92644.53;;;14.81;72.54
39613;BME280;25303;48.896;13.342;2022-09-13T07:24:03;92646.16;;;14.88;72.23
39613;BME280;25303;48.896;13.342;2022-09-13T07:26:47;92642.63;;;14.96;72.12
39613;BME280;25303;48.896;13.342;2022-09-13T07:29:30;92647.06;;;15.02;71.92
39613;BME280;25303;48.896;13.342;2022-09-13T07:32:13;92649.88;;;15.08;71.58
39613;BME280;25303;48.896;13.342;2022-09-13T07:34:56;92653.53;;;15.13;71.27
39613;BME280;25303;48.896;13.342;2022-09-13T07:37:40;92646.19;;;15.17;71.16
39613;BME280;25303;48.896;13.342;2022-09-13T07:40:26;92650.00;;;15.21;71.06
39613;BME280;25303;48.896;13.342;2022-09-13T07:43:08;92648.22;;;15.28;71.21
39613;BME280;25303;48.896;13.342;2022-09-13T07:45:58;92646.06;;;15.32;70.85
39613;BME280;25303;48.896;13.342;2022-09-13T07:48:43;92645.50;;;15.37;71.09
39613;BME280;25303;48.896;13.342;2022-09-13T07:51:28;92631.75;;;15.43;70.93
39613;BME280;25303;48.896;13.342;2022-09-13T07:54:13;92628.00;;;15.45;70.07
39613;BME280;25303;48.896;13.342;2022-09-13T07:56:56;92635.00;;;15.52;70.63
39613;BME280;25303;48.896;13.342;2022-09-13T07:59:39;92630.03;;;15.57;70.36
39613;BME280;25303;48.896;13.342;2022-09-13T08:02:22;92630.28;;;15.62;70.26
39613;BME280;25303;48.896;13.342;2022-09-13T08:05:06;92630.47;;;15.67;69.93
39613;BME280;25303;48.896;13.342;2022-09-13T08:07:49;92640.09;;;15.73;69.91
39613;BME280;25303;48.896;13.342;2022-09-13T08:10:33;92647.91;;;15.80;69.56
39613;BME280;25303;48.896;13.342;2022-09-13T08:13:17;92643.13;;;15.84;69.42
39613;BME280;25303;48.896;13.342;2022-09-13T08:16:00;92646.75;;;15.89;69.66
39613;BME280;25303;48.896;13.342;2022-09-13T08:18:44;92650.19;;;15.97;69.22
39613;BME280;25303;48.896;13.342;2022-09-13T08:21:32;92650.59;;;16.00;68.91
39613;BME280;25303;48.896;13.342;2022-09-13T08:24:16;92655.81;;;16.07;68.76
39613;BME280;25303;48.896;13.342;2022-09-13T08:27:01;92650.84;;;16.12;67.12
39613;BME280;25303;48.896;13.342;2022-09-13T08:29:44;92646.66;;;16.18;67.89
39613;BME280;25303;48.896;13.342;2022-09-13T08:32:27;92654.47;;;16.24;67.86
39613;BME280;25303;48.896;13.342;2022-09-13T08:35:10;92656.50;;;16.29;67.44
39613;BME280;25303;48.896;13.342;2022-09-13T08:37:53;92663.50;;;16.35;67.48
39613;BME280;25303;48.896;13.342;2022-09-13T08:40:39;92652.31;;;16.42;67.69
39613;BME280;25303;48.896;13.342;2022-09-13T08:43:38;92662.34;;;16.51;67.02
39613;BME280;25303;48.896;13.342;2022-09-13T08:46:27;92660.34;;;16.60;67.39
39613;BME280;25303;48.896;13.342;2022-09-13T08:49:16;92658.16;;;16.70;67.51
39613;BME280;25303;48.896;13.342;2022-09-13T08:52:24;92651.34;;;16.76;66.58
39613;BME280;25303;48.896;13.342;2022-09-13T08:55:21;92659.16;;;16.83;66.73
39613;BME280;25303;48.896;13.342;2022-09-13T08:58:18;92662.75;;;16.89;66.54
39613;BME280;25303;48.896;13.342;2022-09-13T09:01:16;92659.38;;;16.95;65.88
39613;BME280;25303;48.896;13.342;2022-09-13T09:04:08;92650.81;;;17.01;66.03
39613;BME280;25303;48.896;13.342;2022-09-13T09:06:54;92658.00;;;17.12;66.13
39613;BME280;25303;48.896;13.342;2022-09-13T09:09:47;92663.19;;;17.26;65.91
39613;BME280;25303;48.896;13.342;2022-09-13T09:12:35;92656.53;;;17.43;65.95
39613;BME280;25303;48.896;13.342;2022-09-13T09:15:23;92656.94;;;17.60;65.23
39613;BME280;25303;48.896;13.342;2022-09-13T09:18:13;92650.66;;;17.75;65.07
39613;BME280;25303;48.896;13.342;2022-09-13T09:21:00;92653.22;;;17.88;64.18
39613;BME280;25303;48.896;13.342;2022-09-13T09:23:49;92650.97;;;18.05;64.41
39613;BME280;25303;48.896;13.342;2022-09-13T09:26:33;92661.28;;;18.32;64.08
39613;BME280;25303;48.896;13.342;2022-09-13T09:29:18;92656.72;;;18.60;63.73
39613;BME280;25303;48.896;13.342;2022-09-13T09:32:16;92655.53;;;18.88;62.44
39613;BME280;25303;48.896;13.342;2022-09-13T09:35:09;92647.31;;;19.16;62.00
39613;BME280;25303;48.896;13.342;2022-09-13T09:38:13;92644.66;;;19.41;61.81
39613;BME280;25303;48.896;13.342;2022-09-13T09:41:00;92645.13;;;19.76;61.67
39613;BME280;25303;48.896;13.342;2022-09-13T09:43:49;92639.91;;;19.94;61.01
39613;BME280;25303;48.896;13.342;2022-09-13T09:46:37;92643.50;;;20.12;60.53
39613;BME280;25303;48.896;13.342;2022-09-13T09:49:25;92633.94;;;20.36;60.09
39613;BME280;25303;48.896;13.342;2022-09-13T09:52:35;92633.94;;;20.67;59.06
39613;BME280;25303;48.896;13.342;2022-09-13T09:55:26;92636.63;;;20.90;58.08
39613;BME280;25303;48.896;13.342;2022-09-13T09:58:09;92632.34;;;21.08;57.92
39613;BME280;25303;48.896;13.342;2022-09-13T10:00:54;92630.06;;;21.23;57.19
39613;BME280;25303;48.896;13.342;2022-09-13T10:03:38;92624.72;;;21.42;57.03
39613;BME280;25303;48.896;13.342;2022-09-13T10:06:23;92626.19;;;21.62;56.69
39613;BME280;25303;48.896;13.342;2022-09-13T10:09:16;92622.28;;;21.76;54.83
39613;BME280;25303;48.896;13.342;2022-09-13T10:12:00;92624.91;;;21.76;55.02
39613;BME280;25303;48.896;13.342;2022-09-13T10:14:44;92621.19;;;21.72;55.22
39613;BME280;25303;48.896;13.342;2022-09-13T10:17:29;92631.22;;;21.63;53.61
39613;BME280;25303;48.896;13.342;2022-09-13T10:20:20;92624.81;;;21.59;53.35
39613;BME280;25303;48.896;13.342;2022-09-13T10:23:17;92617.56;;;21.61;53.30
39613;BME280;25303;48.896;13.342;2022-09-13T10:26:04;92606.13;;;21.79;54.16
39613;BME280;25303;48.896;13.342;2022-09-13T10:28:54;92613.34;;;22.01;53.36
39613;BME280;25303;48.896;13.342;2022-09-13T10:31:40;92627.56;;;22.17;53.45
39613;BME280;25303;48.896;13.342;2022-09-13T10:34:26;92614.03;;;22.37;52.72
39613;BME280;25303;48.896;13.342;2022-09-13T10:37:13;92613.59;;;22.28;51.63
39613;BME280;25303;48.896;13.342;2022-09-13T10:40:02;92615.28;;;22.35;52.40
39613;BME280;25303;48.896;13.342;2022-09-13T10:42:52;92621.94;;;22.54;52.30
39613;BME280;25303;48.896;13.342;2022-09-13T10:45:36;92620.34;;;22.82;51.82
39613;BME280;25303;48.896;13.342;2022-09-13T10:48:19;92623.34;;;23.08;51.31
39613;BME280;25303;48.896;13.342;2022-09-13T10:51:05;92611.28;;;23.24;50.60
39613;BME280;25303;48.896;13.342;2022-09-13T10:53:49;92614.66;;;23.42;50.33
39613;BME280;25303;48.896;13.342;2022-09-13T10:56:32;92613.22;;;23.51;49.10
39613;BME280;25303;48.896;13.342;2022-09-13T10:59:19;92604.78;;;23.49;48.80
39613;BME280;25303;48.896;13.342;2022-09-13T11:02:30;92595.22;;;23.60;47.46
39613;BME280;25303;48.896;13.342;2022-09-13T11:05:21;92599.16;;;23.79;49.16
39613;BME280;25303;48.896;13.342;2022-09-13T11:11:26;92595.19;;;24.21;48.57
39613;BME280;25303;48.896;13.342;2022-09-13T11:17:37;92592.16;;;24.62;46.82
39613;BME280;25303;48.896;13.342;2022-09-13T11:20:31;92590.94;;;24.70;46.81
39613;BME280;25303;48.896;13.342;2022-09-13T11:26:41;92592.28;;;24.23;45.69
39613;BME280;25303;48.896;13.342;2022-09-13T11:29:47;92584.22;;;23.85;45.76
39613;BME280;25303;48.896;13.342;2022-09-13T11:33:01;92582.56;;;23.57;46.50
39613;BME280;25303;48.896;13.342;2022-09-13T11:36:03;92579.59;;;23.31;47.12
39613;BME280;25303;48.896;13.342;2022-09-13T11:38:56;92571.56;;;23.03;46.71
39613;BME280;25303;48.896;13.342;2022-09-13T11:41:49;92568.72;;;22.88;47.91
39613;BME280;25303;48.896;13.342;2022-09-13T11:45:00;92567.03;;;22.82;48.11
39613;BME280;25303;48.896;13.342;2022-09-13T11:47:54;92565.91;;;22.77;47.90
39613;BME280;25303;48.896;13.342;2022-09-13T11:50:47;92564.47;;;22.70;48.34
39613;BME280;25303;48.896;13.342;2022-09-13T11:53:43;92563.91;;;22.68;48.32
39613;BME280;25303;48.896;13.342;2022-09-13T11:56:34;92576.16;;;22.62;48.49
39613;BME280;25303;48.896;13.342;2022-09-13T11:59:23;92573.94;;;22.54;48.97
39613;BME280;25303;48.896;13.342;2022-09-13T12:02:17;92578.78;;;22.45;49.01
39613;BME280;25303;48.896;13.342;2022-09-13T12:05:07;92577.00;;;22.34;49.33
39613;BME280;25303;48.896;13.342;2022-09-13T12:08:15;92577.25;;;22.20;49.48
39613;BME280;25303;48.896;13.342;2022-09-13T12:11:03;92579.94;;;22.08;48.99
39613;BME280;25303;48.896;13.342;2022-09-13T12:13:57;92573.16;;;21.95;49.39
39613;BME280;25303;48.896;13.342;2022-09-13T12:16:43;92567.25;;;21.88;49.72
39613;BME280;25303;48.896;13.342;2022-09-13T12:19:35;92562.72;;;21.83;49.92
39613;BME280;25303;48.896;13.342;2022-09-13T12:22:23;92559.75;;;21.80;49.93
39613;BME280;25303;48.896;13.342;2022-09-13T12:25:18;92562.41;;;21.68;50.05
39613;BME280;25303;48.896;13.342;2022-09-13T12:28:12;92552.63;;;21.63;50.20
39613;BME280;25303;48.896;13.342;2022-09-13T12:31:03;92535.75;;;21.59;50.72
39613;BME280;25303;48.896;13.342;2022-09-13T12:33:47;92521.31;;;21.57;51.00
39613;BME280;25303;48.896;13.342;2022-09-13T12:36:55;92524.50;;;21.47;51.03
39613;BME280;25303;48.896;13.342;2022-09-13T12:40:04;92530.09;;;21.38;50.90
39613;BME280;25303;48.896;13.342;2022-09-13T12:43:32;92537.19;;;21.26;50.99
39613;BME280;25303;48.896;13.342;2022-09-13T12:46:35;92543.91;;;21.22;50.95
39613;BME280;25303;48.896;13.342;2022-09-13T12:52:33;92555.88;;;21.18;51.57
39613;BME280;25303;48.896;13.342;2022-09-13T12:55:37;92555.31;;;21.16;51.55
39613;BME280;25303;48.896;13.342;2022-09-13T12:58:50;92552.09;;;21.14;51.75
39613;BME280;25303;48.896;13.342;2022-09-13T13:01:37;92545.97;;;21.08;51.54
39613;BME280;25303;48.896;13.342;2022-09-13T13:04:23;92547.13;;;21.00;51.74
39613;BME280;25303;48.896;13.342;2022-09-13T13:07:17;92542.53;;;20.95;51.58
39613;BME280;25303;48.896;13.342;2022-09-13T13:10:04;92538.69;;;20.98;52.30
39613;BME280;25303;48.896;13.342;2022-09-13T13:12:47;92531.50;;;21.05;52.51
39613;BME280;25303;48.896;13.342;2022-09-13T13:15:54;92542.41;;;21.14;52.14
39613;BME280;25303;48.896;13.342;2022-09-13T13:18:45;92540.81;;;21.25;52.33
39613;BME280;25303;48.896;13.342;2022-09-13T13:21:37;92542.41;;;21.38;51.86
39613;BME280;25303;48.896;13.342;2022-09-13T13:24:45;92545.47;;;21.47;51.47
39613;BME280;25303;48.896;13.342;2022-09-13T13:27:36;92542.81;;;21.59;51.36
39613;BME280;25303;48.896;13.342;2022-09-13T13:30:53;92529.06;;;21.63;51.09
39613;BME280;25303;48.896;13.342;2022-09-13T13:33:46;92527.97;;;21.76;50.79
39613;BME280;25303;48.896;13.342;2022-09-13T13:36:42;92524.09;;;21.79;50.84
39613;BME280;25303;48.896;13.342;2022-09-13T13:39:40;92520.69;;;21.78;50.17
39613;BME280;25303;48.896;13.342;2022-09-13T13:42:25;92521.84;;;21.70;51.01
39613;BME280;25303;48.896;13.342;2022-09-13T13:45:23;92519.44;;;21.81;51.02
39613;BME280;25303;48.896;13.342;2022-09-13T13:48:12;92518.13;;;21.95;51.28
39613;BME280;25303;48.896;13.342;2022-09-13T13:51:30;92526.41;;;22.04;50.20
39613;BME280;25303;48.896;13.342;2022-09-13T13:54:29;92525.28;;;22.00;50.10
39613;BME280;25303;48.896;13.342;2022-09-13T13:57:22;92522.47;;;21.90;49.82
39613;BME280;25303;48.896;13.342;2022-09-13T14:00:11;92519.91;;;21.78;49.48
39613;BME280;25303;48.896;13.342;2022-09-13T14:03:07;92524.25;;;21.72;49.52
39613;BME280;25303;48.896;13.342;2022-09-13T14:06:01;92519.16;;;21.65;49.81
39613;BME280;25303;48.896;13.342;2022-09-13T14:09:01;92522.66;;;21.59;50.00
39613;BME280;25303;48.896;13.342;2022-09-13T14:11:55;92521.44;;;21.50;50.17
39613;BME280;25303;48.896;13.342;2022-09-13T14:14:58;92526.00;;;21.43;50.37
39613;BME280;25303;48.896;13.342;2022-09-13T14:18:08;92524.28;;;21.36;50.55
39613;BME280;25303;48.896;13.342;2022-09-13T14:20:59;92527.59;;;21.32;50.84
39613;BME280;25303;48.896;13.342;2022-09-13T14:23:43;92515.78;;;21.29;51.11
39613;BME280;25303;48.896;13.342;2022-09-13T14:26:26;92518.97;;;21.31;51.26
39613;BME280;25303;48.896;13.342;2022-09-13T14:29:11;92513.72;;;21.31;51.28
39613;BME280;25303;48.896;13.342;2022-09-13T14:32:02;92518.72;;;21.33;50.81
39613;BME280;25303;48.896;13.342;2022-09-13T14:35:06;92526.38;;;21.34;50.73
39613;BME280;25303;48.896;13.342;2022-09-13T14:37:49;92510.88;;;21.33;51.08
39613;BME280;25303;48.896;13.342;2022-09-13T14:40:32;92517.25;;;21.37;50.84
39613;BME280;25303;48.896;13.342;2022-09-13T14:43:18;92507.00;;;21.35;50.54
39613;BME280;25303;48.896;13.342;2022-09-13T14:46:04;92498.09;;;21.36;50.84
39613;BME280;25303;48.896;13.342;2022-09-13T14:48:51;92501.53;;;21.37;50.55
39613;BME280;25303;48.896;13.342;2022-09-13T14:51:43;92497.78;;;21.33;50.46
39613;BME280;25303;48.896;13.342;2022-09-13T14:54:31;92499.25;;;21.29;50.95
39613;BME280;25303;48.896;13.342;2022-09-13T14:57:22;92490.84;;;21.27;50.59